createdAt,value
2023-04-11T00:00:04.239Z,100257.69
2023-04-11T00:04:25.690Z,100260.50
2023-04-11T00:08:38.228Z,100266.00
2023-04-11T00:12:50.588Z,100266.06
2023-04-11T00:17:03.090Z,100257.28
2023-04-11T00:21:15.546Z,100265.03
2023-04-11T00:25:30.366Z,100257.25
2023-04-11T00:29:42.862Z,100246.69
2023-04-11T00:33:55.199Z,100255.59
2023-04-11T00:38:07.669Z,100275.06
2023-04-11T00:42:20.502Z,100262.78
2023-04-11T00:46:36.229Z,100268.94
2023-04-11T00:50:48.881Z,100275.94
2023-04-11T00:55:03.704Z,100273.31
2023-04-11T00:59:16.297Z,100277.72
2023-04-11T01:03:29.761Z,100281.25
2023-04-11T01:07:45.954Z,100268.00
2023-04-11T01:12:01.697Z,100261.84
2023-04-11T01:16:15.785Z,100259.22
2023-04-11T01:20:29.983Z,100268.19
2023-04-11T01:24:42.533Z,100278.81
2023-04-11T01:28:55.246Z,100262.06
2023-04-11T01:33:07.975Z,100273.59
2023-04-11T01:37:20.766Z,100271.84
2023-04-11T01:41:35.022Z,100270.97
2023-04-11T01:45:47.845Z,100263.94
2023-04-11T01:50:00.211Z,100278.06
2023-04-11T01:54:14.877Z,100272.78
2023-04-11T01:58:27.516Z,100254.31
2023-04-11T02:02:40.308Z,100256.06
2023-04-11T02:06:54.698Z,100269.25
2023-04-11T02:11:08.458Z,100265.72
2023-04-11T02:15:20.979Z,100250.78
2023-04-11T02:19:34.731Z,100255.16
2023-04-11T02:23:47.162Z,100249.03
2023-04-11T02:27:59.597Z,100246.38
2023-04-11T02:32:12.172Z,100271.91
2023-04-11T02:36:24.595Z,100271.00
2023-04-11T02:40:36.923Z,100257.78
2023-04-11T02:44:49.498Z,100263.06
2023-04-11T02:49:05.265Z,100283.28
2023-04-11T02:53:18.954Z,100283.19
2023-04-11T02:57:34.670Z,100287.59
2023-04-11T03:01:47.318Z,100284.06
2023-04-11T03:06:00.356Z,100273.53
2023-04-11T03:10:13.153Z,100284.09
2023-04-11T03:14:25.642Z,100291.06
2023-04-11T03:18:38.006Z,100289.31
2023-04-11T03:22:54.197Z,100283.97
2023-04-11T03:27:06.731Z,100289.25
2023-04-11T03:31:20.026Z,100284.03
2023-04-11T03:35:33.481Z,100292.78
2023-04-11T03:39:46.111Z,100275.28
2023-04-11T03:43:58.624Z,100276.16
2023-04-11T03:48:11.181Z,100266.50
2023-04-11T03:52:35.321Z,100266.47
2023-04-11T03:56:50.899Z,100270.00
2023-04-11T04:01:07.794Z,100265.59
2023-04-11T04:05:21.318Z,100249.72
2023-04-11T04:09:34.582Z,100247.78
2023-04-11T04:13:49.355Z,100250.41
2023-04-11T04:18:04.870Z,100253.16
2023-04-11T04:22:27.134Z,100257.41
2023-04-11T04:26:41.622Z,100246.88
2023-04-11T04:31:06.177Z,100251.22
2023-04-11T04:35:25.190Z,100248.66
2023-04-11T04:39:39.627Z,100250.47
2023-04-11T04:44:00.410Z,100248.00
2023-04-11T04:48:27.375Z,100247.97
2023-04-11T04:52:39.817Z,100252.38
2023-04-11T04:56:52.312Z,100245.34
2023-04-11T05:01:05.504Z,100248.03
2023-04-11T05:05:19.678Z,100248.03
2023-04-11T05:09:33.576Z,100256.84
2023-04-11T05:14:00.665Z,100245.44
2023-04-11T05:18:13.360Z,100256.06
2023-04-11T05:22:26.251Z,100247.16
2023-04-11T05:26:40.992Z,100254.19
2023-04-11T05:30:54.734Z,100262.94
2023-04-11T05:35:10.629Z,100261.03
2023-04-11T05:39:35.858Z,100263.31
2023-04-11T05:43:48.520Z,100255.22
2023-04-11T05:48:01.021Z,100265.03
2023-04-11T05:52:13.547Z,100264.34
2023-04-11T05:56:26.016Z,100263.63
2023-04-11T06:00:38.890Z,100264.44
2023-04-11T06:04:51.667Z,100273.13
2023-04-11T06:09:05.435Z,100265.19
2023-04-11T06:13:17.756Z,100266.72
2023-04-11T06:17:30.480Z,100264.22
2023-04-11T06:21:44.285Z,100259.56
2023-04-11T06:25:56.801Z,100275.13
2023-04-11T06:30:09.974Z,100274.06
2023-04-11T06:34:22.395Z,100267.59
2023-04-11T06:38:37.009Z,100278.00
2023-04-11T06:42:50.646Z,100280.34
2023-04-11T06:47:03.516Z,100274.59
2023-04-11T06:51:16.021Z,100275.22
2023-04-11T06:55:28.371Z,100267.50
2023-04-11T06:59:40.846Z,100264.69
2023-04-11T07:03:53.791Z,100275.13
2023-04-11T07:08:06.392Z,100280.94
2023-04-11T07:12:18.838Z,100285.94
2023-04-11T07:16:31.362Z,100297.28
2023-04-11T07:20:43.823Z,100288.41
2023-04-11T07:24:57.703Z,100299.09
2023-04-11T07:29:11.619Z,100297.41
2023-04-11T07:33:25.681Z,100296.59
2023-04-11T07:37:38.597Z,100292.69
2023-04-11T07:41:51.089Z,100286.75
2023-04-11T07:46:03.993Z,100280.75
2023-04-11T07:50:19.577Z,100283.63
2023-04-11T07:54:32.340Z,100290.75
2023-04-11T07:58:44.836Z,100281.09
2023-04-11T08:02:59.281Z,100261.69
2023-04-11T08:07:11.933Z,100261.78
2023-04-11T08:11:24.355Z,100276.44
2023-04-11T08:15:39.093Z,100263.41
2023-04-11T08:19:51.794Z,100266.84
2023-04-11T08:24:07.515Z,100250.78
2023-04-11T08:28:21.186Z,100250.91
2023-04-11T08:32:33.557Z,100242.69
2023-04-11T08:36:47.062Z,100243.91
2023-04-11T08:40:59.559Z,100237.09
2023-04-11T08:45:12.372Z,100218.16
2023-04-11T08:49:24.876Z,100216.31
2023-04-11T08:53:39.353Z,100215.97
2023-04-11T08:57:53.919Z,100203.88
2023-04-11T09:02:11.487Z,100201.75
2023-04-11T09:06:24.827Z,100186.84
2023-04-11T09:10:38.980Z,100191.63
2023-04-11T09:14:53.405Z,100183.25
2023-04-11T09:19:24.255Z,100182.78
2023-04-11T09:23:37.659Z,100180.00
2023-04-11T09:28:09.617Z,100167.44
2023-04-11T09:32:36.453Z,100161.16
2023-04-11T09:36:56.214Z,100153.19
2023-04-11T09:41:08.701Z,100140.72
2023-04-11T09:45:24.627Z,100137.06
2023-04-11T09:49:37.476Z,100144.19
2023-04-11T09:53:50.023Z,100143.91
2023-04-11T09:58:05.983Z,100142.63
2023-04-11T10:02:18.365Z,100132.59
2023-04-11T10:06:48.402Z,100135.38
2023-04-11T10:11:02.093Z,100131.84
2023-04-11T10:15:15.617Z,100129.75
2023-04-11T10:19:28.253Z,100125.97
2023-04-11T10:24:21.540Z,100119.31
2023-04-11T10:28:36.105Z,100110.88
2023-04-11T10:33:11.566Z,100101.34
2023-04-11T10:37:37.766Z,100096.72
2023-04-11T10:41:50.357Z,100092.72
2023-04-11T10:46:23.129Z,100100.56
2023-04-11T10:50:38.053Z,100097.53
2023-04-11T10:54:54.751Z,100086.16
2023-04-11T10:59:07.484Z,100088.50
2023-04-11T11:03:25.477Z,100077.34
2023-04-11T11:07:40.042Z,100082.22
2023-04-11T11:12:15.983Z,100094.50
2023-04-11T11:16:30.020Z,100090.38
2023-04-11T11:20:42.770Z,100083.69
2023-04-11T11:24:55.536Z,100079.78
2023-04-11T11:29:08.661Z,100084.47
2023-04-11T11:33:23.452Z,100084.00
2023-04-11T11:37:36.047Z,100086.75
2023-04-11T11:41:49.203Z,100092.38
2023-04-11T11:46:15.403Z,100096.81
2023-04-11T11:50:32.891Z,100088.06
2023-04-11T11:54:48.152Z,100084.16
2023-04-11T11:59:00.950Z,100087.22
2023-04-11T12:03:18.546Z,100082.25
2023-04-11T12:07:37.049Z,100090.84
2023-04-11T12:11:49.439Z,100098.16
2023-04-11T12:16:02.416Z,100101.13
2023-04-11T12:20:17.856Z,100112.59
2023-04-11T12:24:30.374Z,100113.31
2023-04-11T12:28:42.785Z,100094.31
2023-04-11T12:32:55.337Z,100102.06
2023-04-11T12:37:07.967Z,100089.50
2023-04-11T12:41:32.375Z,100085.28
2023-04-11T12:45:45.145Z,100084.91
2023-04-11T12:49:57.598Z,100072.75
2023-04-11T12:54:10.082Z,100066.19
2023-04-11T12:58:23.987Z,100065.31
2023-04-11T13:02:42.755Z,100068.84
2023-04-11T13:07:02.137Z,100073.72
2023-04-11T13:11:14.598Z,100061.09
2023-04-11T13:15:27.395Z,100051.56
2023-04-11T13:19:39.961Z,100049.25
2023-04-11T13:23:52.551Z,100059.41
2023-04-11T13:28:04.918Z,100058.53
2023-04-11T13:32:17.339Z,100048.25
2023-04-11T13:36:30.075Z,100038.31
2023-04-11T13:40:43.017Z,100030.72
2023-04-11T13:44:55.677Z,100036.66
2023-04-11T13:49:08.236Z,100022.97
2023-04-11T13:53:20.625Z,100027.69
2023-04-11T13:57:33.179Z,100031.13
2023-04-11T14:01:45.749Z,100023.53
2023-04-11T14:05:58.200Z,100018.44
2023-04-11T14:10:11.271Z,100017.56
2023-04-11T14:14:23.792Z,100026.19
2023-04-11T14:18:36.641Z,100004.88
2023-04-11T14:22:49.511Z,100013.16
2023-04-11T14:27:02.698Z,100019.16
2023-04-11T14:31:15.351Z,100005.75
2023-04-11T14:35:27.942Z,100006.91
2023-04-11T14:39:40.406Z,100013.69
2023-04-11T14:43:52.802Z,100016.34
2023-04-11T14:48:05.657Z,100016.34
2023-04-11T14:52:18.291Z,100009.66
2023-04-11T14:56:30.674Z,100013.31
2023-04-11T15:00:43.210Z,100015.22
2023-04-11T15:04:57.056Z,100011.78
2023-04-11T15:09:10.055Z,100012.44
2023-04-11T15:13:24.110Z,100012.28
2023-04-11T15:17:42.431Z,100023.72
2023-04-11T15:21:54.902Z,100028.50
2023-04-11T15:26:08.870Z,100029.72
2023-04-11T15:30:21.278Z,100022.78
2023-04-11T15:34:33.640Z,100028.66
2023-04-11T15:38:46.742Z,100032.16
2023-04-11T15:42:59.247Z,100032.97
2023-04-11T15:47:14.518Z,100033.22
2023-04-11T15:51:27.537Z,100026.53
2023-04-11T15:55:42.916Z,100017.72
2023-04-11T15:59:56.209Z,100025.78
2023-04-11T16:04:09.436Z,100022.03
2023-04-11T16:08:22.227Z,100015.50
2023-04-11T16:12:35.621Z,100017.31
2023-04-11T16:16:48.358Z,100017.09
2023-04-11T16:21:00.925Z,100013.72
2023-04-11T16:25:16.342Z,100022.59
2023-04-11T16:29:29.119Z,100019.38
2023-04-11T16:33:41.721Z,100033.56
2023-04-11T16:37:54.326Z,100029.22
2023-04-11T16:42:06.892Z,100034.03
2023-04-11T16:46:19.587Z,100046.69
2023-04-11T16:50:32.357Z,100047.75
2023-04-11T16:54:44.931Z,100051.59
2023-04-11T16:58:57.838Z,100054.47
2023-04-11T17:03:11.781Z,100060.94
2023-04-11T17:07:24.308Z,100060.22
2023-04-11T17:11:39.913Z,100058.66
2023-04-11T17:15:52.303Z,100056.09
2023-04-11T17:20:09.793Z,100067.03
2023-04-11T17:24:22.417Z,100067.38
2023-04-11T17:28:35.867Z,100055.75
2023-04-11T17:32:49.376Z,100048.28
2023-04-11T17:37:02.378Z,100055.88
2023-04-11T17:41:15.838Z,100045.31
2023-04-11T17:45:28.615Z,100052.47
2023-04-11T17:49:41.197Z,100059.53
2023-04-11T17:53:53.686Z,100062.41
2023-04-11T17:58:06.525Z,100074.72
2023-04-11T18:02:19.155Z,100087.25
2023-04-11T18:06:34.577Z,100075.66
2023-04-11T18:10:47.135Z,100078.38
2023-04-11T18:14:59.709Z,100084.72
2023-04-11T18:19:12.300Z,100086.41
2023-04-11T18:23:24.641Z,100099.78
2023-04-11T18:27:38.489Z,100095.53
2023-04-11T18:31:50.999Z,100108.16
2023-04-11T18:36:03.613Z,100103.94
2023-04-11T18:40:18.480Z,100095.69
2023-04-11T18:44:31.926Z,100088.03
2023-04-11T18:48:47.113Z,100092.75
2023-04-11T18:53:05.121Z,100089.34
2023-04-11T18:57:18.932Z,100090.25
2023-04-11T19:01:32.030Z,100094.66
2023-04-11T19:05:45.661Z,100091.28
2023-04-11T19:09:58.981Z,100083.25
2023-04-11T19:14:11.588Z,100083.13
2023-04-11T19:18:24.071Z,100079.78
2023-04-11T19:22:40.165Z,100072.78
2023-04-11T19:26:53.120Z,100063.13
2023-04-11T19:31:05.939Z,100068.38
2023-04-11T19:35:21.714Z,100077.34
2023-04-11T19:39:38.692Z,100072.97
2023-04-11T19:43:51.537Z,100064.09
2023-04-11T19:48:04.274Z,100071.13
2023-04-11T19:52:16.858Z,100065.97
2023-04-11T19:56:29.484Z,100069.41
2023-04-11T20:00:42.256Z,100063.22
2023-04-11T20:04:56.401Z,100066.06
2023-04-11T20:09:09.031Z,100066.06
2023-04-11T20:13:21.873Z,100063.47
2023-04-11T20:17:34.460Z,100065.19
2023-04-11T20:21:46.975Z,100066.59
2023-04-11T20:25:59.465Z,100053.91
2023-04-11T20:30:13.272Z,100059.47
2023-04-11T20:34:25.795Z,100059.06
2023-04-11T20:38:38.364Z,100048.06
2023-04-11T20:42:54.061Z,100049.31
2023-04-11T20:47:07.770Z,100049.84
2023-04-11T20:51:20.372Z,100052.88
2023-04-11T20:55:33.731Z,100048.44
2023-04-11T20:59:46.858Z,100055.16
2023-04-11T21:04:02.994Z,100059.16
2023-04-11T21:08:15.955Z,100053.88
2023-04-11T21:12:28.280Z,100054.56
2023-04-11T21:16:40.762Z,100055.03
2023-04-11T21:20:53.222Z,100048.38
2023-04-11T21:25:06.121Z,100039.25
2023-04-11T21:29:18.639Z,100044.78
2023-04-11T21:33:31.183Z,100038.66
2023-04-11T21:37:43.610Z,100044.47
2023-04-11T21:41:56.640Z,100036.63
2023-04-11T21:46:09.054Z,100035.63
2023-04-11T21:50:21.498Z,100030.41
2023-04-11T21:54:34.599Z,100034.03
2023-04-11T21:58:47.053Z,100040.25
2023-04-11T22:02:59.642Z,100045.66
2023-04-11T22:07:15.932Z,100045.56
2023-04-11T22:11:28.506Z,100043.03
2023-04-11T22:15:41.170Z,100031.69
2023-04-11T22:19:53.604Z,100037.63
2023-04-11T22:24:09.754Z,100032.53
2023-04-11T22:28:22.471Z,100037.06
2023-04-11T22:32:35.046Z,100030.19
2023-04-11T22:36:47.698Z,100041.75
2023-04-11T22:41:00.034Z,100016.22
2023-04-11T22:45:12.416Z,100004.59
2023-04-11T22:49:25.039Z,100007.28
2023-04-11T22:53:42.355Z,100009.91
2023-04-11T22:57:54.923Z,100006.41
2023-04-11T23:02:07.626Z,99996.75
2023-04-11T23:06:20.138Z,99996.78
2023-04-11T23:10:32.533Z,99997.69
2023-04-11T23:14:46.858Z,99998.28
2023-04-11T23:18:59.565Z,99996.66
2023-04-11T23:23:11.985Z,99993.94
2023-04-11T23:27:24.793Z,99989.63
2023-04-11T23:31:37.249Z,99990.63
2023-04-11T23:35:49.674Z,99980.09
2023-04-11T23:40:11.114Z,99966.00
2023-04-11T23:44:24.010Z,99965.06
2023-04-11T23:48:37.370Z,99975.72
2023-04-11T23:52:49.951Z,99967.81
2023-04-11T23:57:02.616Z,99969.72
